createdAt,value
2023-01-20T00:00:46.457Z,50.98
2023-01-20T00:05:39.470Z,50.97
2023-01-20T00:10:32.540Z,51.04
2023-01-20T00:15:26.412Z,50.98
2023-01-20T00:20:19.691Z,50.96
2023-01-20T00:25:13.021Z,50.92
2023-01-20T00:30:07.920Z,50.94
2023-01-20T00:35:00.575Z,50.70
2023-01-20T00:39:54.298Z,50.68
2023-01-20T00:44:48.085Z,50.89
2023-01-20T00:49:42.193Z,50.66
2023-01-20T00:54:35.984Z,50.85
2023-01-20T00:59:29.644Z,50.84
2023-01-20T01:04:23.688Z,50.63
2023-01-20T01:09:16.973Z,50.43
2023-01-20T01:14:10.999Z,50.57
2023-01-20T01:19:04.760Z,50.48
2023-01-20T01:23:58.131Z,50.72
2023-01-20T01:28:51.207Z,50.38
2023-01-20T01:33:44.364Z,50.30
2023-01-20T01:38:38.324Z,50.53
2023-01-20T01:43:35.054Z,50.50
2023-01-20T01:48:36.285Z,50.37
2023-01-20T01:53:34.569Z,50.34
2023-01-20T01:58:33.449Z,50.28
2023-01-20T02:03:34.327Z,50.40
2023-01-20T02:08:29.107Z,50.43
2023-01-20T02:13:22.943Z,50.22
2023-01-20T02:18:31.285Z,50.12
2023-01-20T02:23:42.278Z,50.18
2023-01-20T02:29:10.408Z,50.18
2023-01-20T02:34:35.515Z,50.21
2023-01-20T02:39:44.608Z,50.42
2023-01-20T02:44:52.613Z,50.11
2023-01-20T02:50:14.333Z,50.16
2023-01-20T02:55:11.283Z,50.22
2023-01-20T03:00:21.429Z,50.07
2023-01-20T03:05:21.905Z,50.22
2023-01-20T03:10:20.940Z,50.03
2023-01-20T03:15:15.223Z,49.80
2023-01-20T03:20:10.967Z,49.90
2023-01-20T03:25:04.615Z,50.08
2023-01-20T03:29:58.889Z,49.85
2023-01-20T03:34:52.601Z,49.84
2023-01-20T03:39:45.551Z,50.04
2023-01-20T03:44:47.592Z,49.91
2023-01-20T03:50:05.708Z,50.08
2023-01-20T03:55:05.009Z,49.94
2023-01-20T03:59:59.750Z,50.13
2023-01-20T04:04:55.264Z,49.82
2023-01-20T04:09:52.913Z,49.84
2023-01-20T04:14:50.541Z,49.95
2023-01-20T04:19:43.540Z,49.91
2023-01-20T04:24:36.783Z,49.89
2023-01-20T04:29:30.113Z,49.90
2023-01-20T04:34:23.594Z,49.69
2023-01-20T04:39:17.519Z,49.81
2023-01-20T04:44:10.604Z,49.79
2023-01-20T04:49:04.415Z,49.80
2023-01-20T04:53:59.145Z,49.65
2023-01-20T04:58:53.357Z,49.70
2023-01-20T05:03:47.331Z,49.66
2023-01-20T05:08:40.708Z,49.73
2023-01-20T05:13:38.942Z,49.63
2023-01-20T05:18:33.495Z,49.58
2023-01-20T05:23:27.261Z,49.58
2023-01-20T05:28:21.230Z,49.68
2023-01-20T05:33:15.246Z,49.63
2023-01-20T05:38:08.911Z,49.55
2023-01-20T05:43:02.658Z,49.44
2023-01-20T05:47:58.539Z,49.46
2023-01-20T05:52:51.819Z,49.64
2023-01-20T05:57:45.580Z,49.62
2023-01-20T06:02:39.585Z,49.52
2023-01-20T06:07:33.228Z,49.40
2023-01-20T06:12:26.833Z,49.28
2023-01-20T06:17:19.737Z,49.60
2023-01-20T06:22:35.050Z,49.46
2023-01-20T06:27:28.324Z,49.56
2023-01-20T06:32:21.925Z,49.49
2023-01-20T06:37:14.954Z,49.73
2023-01-20T06:42:08.291Z,49.73
2023-01-20T06:47:01.887Z,49.54
2023-01-20T06:51:55.021Z,49.61
2023-01-20T06:56:49.235Z,49.83
2023-01-20T07:01:42.929Z,49.54
2023-01-20T07:06:39.099Z,49.33
2023-01-20T07:11:32.536Z,49.47
2023-01-20T07:16:26.893Z,49.00
2023-01-20T07:21:20.856Z,48.82
2023-01-20T07:26:18.889Z,49.11
2023-01-20T07:31:15.079Z,49.02
2023-01-20T07:36:09.795Z,49.10
2023-01-20T07:41:05.435Z,48.86
2023-01-20T07:46:03.631Z,49.03
2023-01-20T07:51:05.896Z,48.92
2023-01-20T07:56:02.594Z,48.96
2023-01-20T08:00:55.603Z,49.02
2023-01-20T08:05:49.123Z,49.00
2023-01-20T08:10:42.386Z,49.13
2023-01-20T08:15:35.824Z,48.85
2023-01-20T08:20:29.537Z,49.01
2023-01-20T08:25:23.532Z,48.77
2023-01-20T08:30:17.360Z,48.85
2023-01-20T08:35:09.750Z,48.88
2023-01-20T08:40:04.529Z,48.71
2023-01-20T08:45:02.984Z,48.89
2023-01-20T08:49:57.298Z,48.73
2023-01-20T08:54:53.802Z,48.68
2023-01-20T08:59:47.743Z,48.66
2023-01-20T09:04:45.810Z,48.85
2023-01-20T09:09:39.980Z,48.62
2023-01-20T09:14:33.704Z,48.55
2023-01-20T09:19:27.006Z,48.57
2023-01-20T09:24:21.162Z,48.41
2023-01-20T09:29:18.281Z,48.47
2023-01-20T09:34:15.283Z,48.41
2023-01-20T09:39:27.902Z,48.54
2023-01-20T09:44:50.975Z,48.29
2023-01-20T09:50:39.676Z,48.35
2023-01-20T09:55:32.841Z,48.38
2023-01-20T10:00:32.127Z,48.47
2023-01-20T10:05:34.722Z,48.32
2023-01-20T10:10:36.497Z,48.24
2023-01-20T10:15:36.343Z,48.18
2023-01-20T10:20:49.315Z,48.38
2023-01-20T10:25:54.276Z,48.12
2023-01-20T10:30:48.726Z,48.21
2023-01-20T10:35:47.286Z,48.24
2023-01-20T10:41:20.375Z,47.83
2023-01-20T10:46:53.221Z,47.91
2023-01-20T10:52:29.061Z,47.85
2023-01-20T10:57:22.771Z,48.15
2023-01-20T11:02:23.658Z,48.23
2023-01-20T11:07:18.478Z,47.71
2023-01-20T11:12:17.325Z,48.20
2023-01-20T11:17:16.310Z,48.05
2023-01-20T11:22:15.825Z,47.92
2023-01-20T11:27:15.562Z,48.06
2023-01-20T11:32:25.335Z,47.83
2023-01-20T11:37:21.966Z,48.09
2023-01-20T11:42:25.221Z,47.96
2023-01-20T11:47:34.947Z,47.83
2023-01-20T11:52:28.764Z,47.92
2023-01-20T11:57:23.023Z,47.75
2023-01-20T12:02:15.873Z,47.82
2023-01-20T12:07:22.123Z,47.77
2023-01-20T12:12:41.510Z,48.05
2023-01-20T12:17:37.699Z,47.93
2023-01-20T12:22:36.044Z,47.58
2023-01-20T12:27:29.471Z,42.62
2023-01-20T12:32:22.201Z,39.42
2023-01-20T12:37:32.557Z,38.96
2023-01-20T12:42:25.367Z,38.12
2023-01-20T12:47:59.512Z,38.24
2023-01-20T12:53:28.357Z,40.04
2023-01-20T12:58:27.249Z,39.65
2023-01-20T13:03:50.184Z,39.37
2023-01-20T13:08:52.173Z,39.35
2023-01-20T13:13:56.886Z,39.22
2023-01-20T13:19:20.213Z,38.83
2023-01-20T13:24:30.060Z,39.30
2023-01-20T13:29:52.121Z,39.17
2023-01-20T13:34:45.776Z,42.00
2023-01-20T13:39:49.417Z,42.31
2023-01-20T13:44:57.241Z,42.68
2023-01-20T13:49:52.222Z,42.98
2023-01-20T13:54:47.474Z,43.05
2023-01-20T13:59:41.512Z,42.81
2023-01-20T14:04:35.067Z,43.52
2023-01-20T14:09:33.097Z,43.24
2023-01-20T14:14:27.863Z,43.37
2023-01-20T14:19:33.565Z,43.80
2023-01-20T14:25:00.971Z,43.89
2023-01-20T14:29:55.788Z,43.63
2023-01-20T14:34:49.063Z,43.89
2023-01-20T14:39:42.996Z,43.77
2023-01-20T14:44:36.529Z,44.37
2023-01-20T14:49:35.724Z,43.76
2023-01-20T14:54:42.376Z,44.35
2023-01-20T14:59:36.256Z,44.45
2023-01-20T15:04:37.671Z,44.30
2023-01-20T15:09:33.736Z,44.41
2023-01-20T15:14:33.349Z,44.53
2023-01-20T15:19:33.476Z,44.53
2023-01-20T15:24:35.930Z,44.34
2023-01-20T15:29:34.018Z,44.37
2023-01-20T15:34:28.618Z,44.83
2023-01-20T15:39:24.234Z,44.52
2023-01-20T15:44:18.475Z,44.64
2023-01-20T15:49:12.292Z,44.75
2023-01-20T15:54:08.176Z,44.92
2023-01-20T15:59:01.056Z,44.62
2023-01-20T16:03:58.160Z,44.51
2023-01-20T16:08:52.111Z,44.73
2023-01-20T16:13:46.775Z,45.17
2023-01-20T16:18:39.756Z,44.88
2023-01-20T16:23:33.664Z,44.88
2023-01-20T16:28:26.666Z,45.15
2023-01-20T16:33:27.570Z,45.27
2023-01-20T16:38:23.848Z,44.97
2023-01-20T16:43:18.534Z,45.33
2023-01-20T16:48:13.433Z,45.48
2023-01-20T16:53:07.178Z,45.36
2023-01-20T16:58:00.811Z,44.98
2023-01-20T17:02:53.548Z,45.12
2023-01-20T17:07:46.855Z,45.13
2023-01-20T17:12:39.895Z,45.27
2023-01-20T17:17:33.848Z,45.01
2023-01-20T17:22:27.705Z,45.42
2023-01-20T17:27:25.222Z,45.55
2023-01-20T17:32:19.512Z,45.82
2023-01-20T17:37:14.571Z,45.75
2023-01-20T17:42:08.559Z,45.44
2023-01-20T17:47:01.851Z,45.49
2023-01-20T17:51:55.146Z,45.51
2023-01-20T17:56:49.355Z,45.43
2023-01-20T18:01:44.911Z,45.18
2023-01-20T18:06:38.376Z,45.26
2023-01-20T18:11:33.876Z,45.33
2023-01-20T18:16:32.191Z,45.27
2023-01-20T18:21:30.604Z,45.49
2023-01-20T18:26:26.082Z,45.79
2023-01-20T18:31:21.930Z,45.77
2023-01-20T18:36:26.474Z,46.23
2023-01-20T18:41:20.448Z,46.96
2023-01-20T18:46:13.626Z,46.64
2023-01-20T18:51:07.499Z,46.55
2023-01-20T18:56:06.222Z,46.49
2023-01-20T19:01:07.656Z,46.59
2023-01-20T19:06:26.092Z,47.14
2023-01-20T19:11:42.043Z,47.19
2023-01-20T19:16:39.845Z,46.61
2023-01-20T19:21:33.704Z,45.26
2023-01-20T19:26:28.264Z,45.87
2023-01-20T19:31:21.381Z,44.76
2023-01-20T19:36:18.222Z,42.01
2023-01-20T19:41:13.073Z,43.96
2023-01-20T19:46:08.645Z,42.32
2023-01-20T19:51:14.647Z,38.95
2023-01-20T19:56:17.162Z,38.65
2023-01-20T20:01:15.974Z,41.27
2023-01-20T20:06:21.726Z,42.19
2023-01-20T20:11:15.862Z,42.76
2023-01-20T20:16:09.876Z,43.19
2023-01-20T20:21:04.211Z,43.69
2023-01-20T20:25:57.274Z,43.32
2023-01-20T20:30:51.892Z,43.52
2023-01-20T20:35:45.756Z,43.59
2023-01-20T20:40:38.848Z,43.37
2023-01-20T20:45:32.378Z,43.61
2023-01-20T20:50:26.376Z,43.94
2023-01-20T20:55:20.651Z,44.05
2023-01-20T21:00:16.492Z,44.37
2023-01-20T21:05:11.048Z,44.68
2023-01-20T21:10:05.749Z,44.75
2023-01-20T21:14:59.700Z,45.03
2023-01-20T21:19:53.167Z,45.05
2023-01-20T21:24:47.024Z,45.65
2023-01-20T21:29:43.982Z,45.57
2023-01-20T21:34:36.901Z,45.56
2023-01-20T21:39:30.383Z,45.90
2023-01-20T21:44:29.271Z,45.87
2023-01-20T21:49:40.842Z,45.82
2023-01-20T21:54:35.566Z,45.88
2023-01-20T21:59:28.872Z,46.81
2023-01-20T22:04:23.015Z,47.25
2023-01-20T22:09:15.895Z,47.80
2023-01-20T22:14:10.293Z,48.38
2023-01-20T22:19:03.700Z,48.90
2023-01-20T22:23:57.171Z,48.98
2023-01-20T22:28:50.828Z,49.19
2023-01-20T22:33:44.724Z,49.55
2023-01-20T22:38:37.500Z,49.89
2023-01-20T22:43:31.338Z,50.03
2023-01-20T22:48:24.802Z,49.83
2023-01-20T22:53:18.324Z,50.25
2023-01-20T22:58:13.265Z,50.19
2023-01-20T23:03:12.953Z,50.39
2023-01-20T23:08:06.899Z,50.55
2023-01-20T23:13:00.443Z,50.80
2023-01-20T23:17:54.619Z,50.48
2023-01-20T23:22:48.008Z,50.73
2023-01-20T23:27:41.561Z,50.94
2023-01-20T23:32:36.031Z,51.10
2023-01-20T23:37:30.198Z,51.26
2023-01-20T23:42:23.797Z,51.09
2023-01-20T23:47:18.638Z,50.93
2023-01-20T23:52:12.975Z,50.83
2023-01-20T23:57:05.074Z,51.30
